sensor_id;sensor_type;location;lat;lon;timestamp;temperature;humidity
35277;DHT22;21401;50.878;8.050;2023-02-13T00:02:40;6.30;99.90
35277;DHT22;21401;50.878;8.050;2023-02-13T00:05:26;6.40;99.90
35277;DHT22;21401;50.878;8.050;2023-02-13T00:07:51;6.30;99.90
35277;DHT22;21401;50.878;8.050;2023-02-13T00:10:17;6.30;99.90
35277;DHT22;21401;50.878;8.050;2023-02-13T00:12:45;6.30;99.90
35277;DHT22;21401;50.878;8.050;2023-02-13T00:15:10;6.40;99.90
35277;DHT22;21401;50.878;8.050;2023-02-13T00:17:36;6.30;99.90
35277;DHT22;21401;50.878;8.050;2023-02-13T00:20:02;6.30;99.90
35277;DHT22;21401;50.878;8.050;2023-02-13T00:22:27;6.30;99.90
35277;DHT22;21401;50.878;8.050;2023-02-13T00:24:53;6.40;99.90
35277;DHT22;21401;50.878;8.050;2023-02-13T00:27:21;6.30;99.90
35277;DHT22;21401;50.878;8.050;2023-02-13T00:29:46;6.40;99.90
35277;DHT22;21401;50.878;8.050;2023-02-13T00:32:13;6.40;99.90
35277;DHT22;21401;50.878;8.050;2023-02-13T00:34:38;6.40;99.90
35277;DHT22;21401;50.878;8.050;2023-02-13T00:37:04;6.30;99.90
35277;DHT22;21401;50.878;8.050;2023-02-13T00:39:30;6.40;99.90
35277;DHT22;21401;50.878;8.050;2023-02-13T00:41:57;6.40;99.90
35277;DHT22;21401;50.878;8.050;2023-02-13T00:44:23;6.40;99.90
35277;DHT22;21401;50.878;8.050;2023-02-13T00:46:48;6.30;99.90
35277;DHT22;21401;50.878;8.050;2023-02-13T00:49:14;6.30;99.90
35277;DHT22;21401;50.878;8.050;2023-02-13T00:51:39;6.40;99.90
35277;DHT22;21401;50.878;8.050;2023-02-13T00:54:05;6.40;99.90
35277;DHT22;21401;50.878;8.050;2023-02-13T00:56:33;6.40;99.90
35277;DHT22;21401;50.878;8.050;2023-02-13T00:58:58;6.30;99.90
35277;DHT22;21401;50.878;8.050;2023-02-13T01:01:26;6.30;99.90
35277;DHT22;21401;50.878;8.050;2023-02-13T01:03:52;6.30;99.90
35277;DHT22;21401;50.878;8.050;2023-02-13T01:06:22;6.30;99.90
35277;DHT22;21401;50.878;8.050;2023-02-13T01:08:50;6.30;99.90
35277;DHT22;21401;50.878;8.050;2023-02-13T01:11:18;6.30;99.90
35277;DHT22;21401;50.878;8.050;2023-02-13T01:13:44;6.30;99.90
35277;DHT22;21401;50.878;8.050;2023-02-13T01:16:12;6.30;99.90
35277;DHT22;21401;50.878;8.050;2023-02-13T01:18:40;6.30;99.90
35277;DHT22;21401;50.878;8.050;2023-02-13T01:21:07;6.20;99.90
35277;DHT22;21401;50.878;8.050;2023-02-13T01:23:37;6.20;99.90
35277;DHT22;21401;50.878;8.050;2023-02-13T01:26:04;6.20;99.90
35277;DHT22;21401;50.878;8.050;2023-02-13T01:28:30;6.30;99.90
35277;DHT22;21401;50.878;8.050;2023-02-13T01:30:57;6.30;99.90
35277;DHT22;21401;50.878;8.050;2023-02-13T01:33:24;6.20;99.90
35277;DHT22;21401;50.878;8.050;2023-02-13T01:35:53;6.20;99.90
35277;DHT22;21401;50.878;8.050;2023-02-13T01:38:19;6.10;99.90
35277;DHT22;21401;50.878;8.050;2023-02-13T01:40:46;6.20;99.90
35277;DHT22;21401;50.878;8.050;2023-02-13T01:43:14;6.10;99.90
35277;DHT22;21401;50.878;8.050;2023-02-13T01:45:40;6.20;99.90
35277;DHT22;21401;50.878;8.050;2023-02-13T01:48:22;6.10;99.90
35277;DHT22;21401;50.878;8.050;2023-02-13T01:51:00;6.10;99.90
35277;DHT22;21401;50.878;8.050;2023-02-13T01:57:27;6.10;99.90
35277;DHT22;21401;50.878;8.050;2023-02-13T02:00:21;6.10;99.90
35277;DHT22;21401;50.878;8.050;2023-02-13T02:03:26;6.10;99.90
35277;DHT22;21401;50.878;8.050;2023-02-13T02:15:25;6.10;99.90
35277;DHT22;21401;50.878;8.050;2023-02-13T02:17:50;6.10;99.90
35277;DHT22;21401;50.878;8.050;2023-02-13T02:29:16;6.10;99.90
35277;DHT22;21401;50.878;8.050;2023-02-13T02:42:34;6.10;99.90
35277;DHT22;21401;50.878;8.050;2023-02-13T02:45:07;6.10;99.90
35277;DHT22;21401;50.878;8.050;2023-02-13T02:47:51;6.10;99.90
35277;DHT22;21401;50.878;8.050;2023-02-13T02:53:29;6.10;99.90
35277;DHT22;21401;50.878;8.050;2023-02-13T02:58:51;6.10;99.90
35277;DHT22;21401;50.878;8.050;2023-02-13T03:01:38;6.10;99.90
35277;DHT22;21401;50.878;8.050;2023-02-13T03:07:17;6.10;99.90
35277;DHT22;21401;50.878;8.050;2023-02-13T03:09:47;6.10;99.90
35277;DHT22;21401;50.878;8.050;2023-02-13T03:15:37;6.10;99.90
35277;DHT22;21401;50.878;8.050;2023-02-13T03:18:24;6.00;99.90
35277;DHT22;21401;50.878;8.050;2023-02-13T03:27:33;6.00;99.90
35277;DHT22;21401;50.878;8.050;2023-02-13T03:30:27;6.10;99.90
35277;DHT22;21401;50.878;8.050;2023-02-13T03:33:20;6.10;99.90
35277;DHT22;21401;50.878;8.050;2023-02-13T03:36:12;6.00;99.90
35277;DHT22;21401;50.878;8.050;2023-02-13T03:39:18;6.00;99.90
35277;DHT22;21401;50.878;8.050;2023-02-13T03:42:03;6.00;99.90
35277;DHT22;21401;50.878;8.050;2023-02-13T03:44:33;6.00;99.90
35277;DHT22;21401;50.878;8.050;2023-02-13T03:47:02;6.00;99.90
35277;DHT22;21401;50.878;8.050;2023-02-13T03:49:36;6.00;99.90
35277;DHT22;21401;50.878;8.050;2023-02-13T03:54:55;6.00;99.90
35277;DHT22;21401;50.878;8.050;2023-02-13T03:57:45;6.00;99.90
35277;DHT22;21401;50.878;8.050;2023-02-13T04:00:53;6.00;99.90
35277;DHT22;21401;50.878;8.050;2023-02-13T04:06:02;6.00;99.90
35277;DHT22;21401;50.878;8.050;2023-02-13T04:08:28;6.10;99.90
35277;DHT22;21401;50.878;8.050;2023-02-13T04:16:05;6.00;99.90
35277;DHT22;21401;50.878;8.050;2023-02-13T04:18:37;6.00;99.90
35277;DHT22;21401;50.878;8.050;2023-02-13T04:21:06;6.00;99.90
35277;DHT22;21401;50.878;8.050;2023-02-13T04:23:34;6.10;99.90
35277;DHT22;21401;50.878;8.050;2023-02-13T04:26:05;6.00;99.90
35277;DHT22;21401;50.878;8.050;2023-02-13T04:28:32;6.00;99.90
35277;DHT22;21401;50.878;8.050;2023-02-13T04:30:57;6.10;99.90
35277;DHT22;21401;50.878;8.050;2023-02-13T04:33:23;6.00;99.90
35277;DHT22;21401;50.878;8.050;2023-02-13T04:35:49;6.00;99.90
35277;DHT22;21401;50.878;8.050;2023-02-13T04:38:14;6.10;99.90
35277;DHT22;21401;50.878;8.050;2023-02-13T04:40:40;6.10;99.90
35277;DHT22;21401;50.878;8.050;2023-02-13T04:43:05;6.10;99.90
35277;DHT22;21401;50.878;8.050;2023-02-13T04:45:31;6.10;99.90
35277;DHT22;21401;50.878;8.050;2023-02-13T04:47:57;6.10;99.90
35277;DHT22;21401;50.878;8.050;2023-02-13T04:50:23;6.10;99.90
35277;DHT22;21401;50.878;8.050;2023-02-13T04:52:53;6.00;99.90
35277;DHT22;21401;50.878;8.050;2023-02-13T04:55:20;6.10;99.90
35277;DHT22;21401;50.878;8.050;2023-02-13T04:57:45;6.00;99.90
35277;DHT22;21401;50.878;8.050;2023-02-13T05:00:12;6.10;99.90
35277;DHT22;21401;50.878;8.050;2023-02-13T05:02:38;6.10;99.90
35277;DHT22;21401;50.878;8.050;2023-02-13T05:05:04;6.10;99.90
35277;DHT22;21401;50.878;8.050;2023-02-13T05:07:32;6.00;99.90
35277;DHT22;21401;50.878;8.050;2023-02-13T05:09:57;6.00;99.90
35277;DHT22;21401;50.878;8.050;2023-02-13T05:12:25;6.10;99.90
35277;DHT22;21401;50.878;8.050;2023-02-13T05:14:51;6.10;99.90
35277;DHT22;21401;50.878;8.050;2023-02-13T05:17:16;6.10;99.90
35277;DHT22;21401;50.878;8.050;2023-02-13T05:19:42;6.00;99.90
35277;DHT22;21401;50.878;8.050;2023-02-13T05:22:10;6.00;99.90
35277;DHT22;21401;50.878;8.050;2023-02-13T05:24:56;6.00;99.90
35277;DHT22;21401;50.878;8.050;2023-02-13T05:27:22;6.00;99.90
35277;DHT22;21401;50.878;8.050;2023-02-13T05:29:48;6.00;99.90
35277;DHT22;21401;50.878;8.050;2023-02-13T05:32:13;6.00;99.90
35277;DHT22;21401;50.878;8.050;2023-02-13T05:34:39;6.00;99.90
35277;DHT22;21401;50.878;8.050;2023-02-13T05:37:04;6.00;99.90
35277;DHT22;21401;50.878;8.050;2023-02-13T05:39:32;6.00;99.90
35277;DHT22;21401;50.878;8.050;2023-02-13T05:41:58;6.00;99.90
35277;DHT22;21401;50.878;8.050;2023-02-13T05:44:24;6.00;99.90
35277;DHT22;21401;50.878;8.050;2023-02-13T05:46:49;6.00;99.90
35277;DHT22;21401;50.878;8.050;2023-02-13T05:49:17;5.90;99.90
35277;DHT22;21401;50.878;8.050;2023-02-13T05:51:43;5.90;99.90
35277;DHT22;21401;50.878;8.050;2023-02-13T05:54:11;5.80;99.90
35277;DHT22;21401;50.878;8.050;2023-02-13T05:56:37;5.80;99.90
35277;DHT22;21401;50.878;8.050;2023-02-13T05:59:03;5.80;99.90
35277;DHT22;21401;50.878;8.050;2023-02-13T06:01:29;5.80;99.90
35277;DHT22;21401;50.878;8.050;2023-02-13T06:03:54;5.70;99.90
35277;DHT22;21401;50.878;8.050;2023-02-13T06:06:22;5.60;99.90
35277;DHT22;21401;50.878;8.050;2023-02-13T06:08:48;5.60;99.90
35277;DHT22;21401;50.878;8.050;2023-02-13T06:11:14;5.60;99.90
35277;DHT22;21401;50.878;8.050;2023-02-13T06:13:39;5.60;99.90
35277;DHT22;21401;50.878;8.050;2023-02-13T06:16:09;5.60;99.90
35277;DHT22;21401;50.878;8.050;2023-02-13T06:18:35;5.50;99.90
35277;DHT22;21401;50.878;8.050;2023-02-13T06:21:01;5.40;99.90
35277;DHT22;21401;50.878;8.050;2023-02-13T06:23:27;5.30;99.90
35277;DHT22;21401;50.878;8.050;2023-02-13T06:25:56;5.30;99.90
35277;DHT22;21401;50.878;8.050;2023-02-13T06:28:23;5.30;99.90
35277;DHT22;21401;50.878;8.050;2023-02-13T06:30:51;5.20;99.90
35277;DHT22;21401;50.878;8.050;2023-02-13T06:33:19;5.10;99.90
35277;DHT22;21401;50.878;8.050;2023-02-13T06:35:47;5.10;99.90
35277;DHT22;21401;50.878;8.050;2023-02-13T06:38:13;5.00;99.90
35277;DHT22;21401;50.878;8.050;2023-02-13T06:40:39;5.00;99.90
35277;DHT22;21401;50.878;8.050;2023-02-13T06:43:04;4.90;99.90
35277;DHT22;21401;50.878;8.050;2023-02-13T06:45:30;4.80;99.90
35277;DHT22;21401;50.878;8.050;2023-02-13T06:47:55;4.70;99.90
35277;DHT22;21401;50.878;8.050;2023-02-13T06:50:23;4.70;99.90
35277;DHT22;21401;50.878;8.050;2023-02-13T06:52:56;4.70;99.90
35277;DHT22;21401;50.878;8.050;2023-02-13T06:55:21;4.70;99.90
35277;DHT22;21401;50.878;8.050;2023-02-13T06:57:47;4.70;99.90
35277;DHT22;21401;50.878;8.050;2023-02-13T07:00:16;4.60;99.90
35277;DHT22;21401;50.878;8.050;2023-02-13T07:02:43;4.70;99.90
35277;DHT22;21401;50.878;8.050;2023-02-13T07:05:10;4.60;99.90
35277;DHT22;21401;50.878;8.050;2023-02-13T07:07:38;4.40;99.90
35277;DHT22;21401;50.878;8.050;2023-02-13T07:10:06;4.20;99.90
35277;DHT22;21401;50.878;8.050;2023-02-13T07:12:33;4.40;99.90
35277;DHT22;21401;50.878;8.050;2023-02-13T07:14:59;4.50;99.90
35277;DHT22;21401;50.878;8.050;2023-02-13T07:17:27;4.60;99.90
35277;DHT22;21401;50.878;8.050;2023-02-13T07:19:53;4.80;99.90
35277;DHT22;21401;50.878;8.050;2023-02-13T07:22:19;4.70;99.90
35277;DHT22;21401;50.878;8.050;2023-02-13T07:24:47;4.70;99.90
35277;DHT22;21401;50.878;8.050;2023-02-13T07:27:12;4.70;99.90
35277;DHT22;21401;50.878;8.050;2023-02-13T07:29:38;4.70;99.90
35277;DHT22;21401;50.878;8.050;2023-02-13T07:32:04;4.70;99.90
35277;DHT22;21401;50.878;8.050;2023-02-13T07:34:31;4.90;99.90
35277;DHT22;21401;50.878;8.050;2023-02-13T07:36:57;5.00;99.90
35277;DHT22;21401;50.878;8.050;2023-02-13T07:39:22;5.10;99.90
35277;DHT22;21401;50.878;8.050;2023-02-13T07:41:50;5.20;99.90
35277;DHT22;21401;50.878;8.050;2023-02-13T07:44:16;5.20;99.90
35277;DHT22;21401;50.878;8.050;2023-02-13T07:46:42;5.20;99.90
35277;DHT22;21401;50.878;8.050;2023-02-13T07:49:08;5.20;99.90
35277;DHT22;21401;50.878;8.050;2023-02-13T07:51:33;5.20;99.90
35277;DHT22;21401;50.878;8.050;2023-02-13T07:54:00;5.00;99.90
35277;DHT22;21401;50.878;8.050;2023-02-13T07:56:26;4.90;99.90
35277;DHT22;21401;50.878;8.050;2023-02-13T07:58:51;4.80;99.90
35277;DHT22;21401;50.878;8.050;2023-02-13T08:01:21;5.00;99.90
35277;DHT22;21401;50.878;8.050;2023-02-13T08:03:48;5.10;99.90
35277;DHT22;21401;50.878;8.050;2023-02-13T08:06:18;5.40;99.90
35277;DHT22;21401;50.878;8.050;2023-02-13T08:08:44;5.70;99.90
35277;DHT22;21401;50.878;8.050;2023-02-13T08:11:25;5.80;99.90
35277;DHT22;21401;50.878;8.050;2023-02-13T08:14:10;5.80;99.90
35277;DHT22;21401;50.878;8.050;2023-02-13T08:16:36;5.80;99.90
35277;DHT22;21401;50.878;8.050;2023-02-13T08:19:02;5.70;99.90
35277;DHT22;21401;50.878;8.050;2023-02-13T08:21:27;5.70;99.90
35277;DHT22;21401;50.878;8.050;2023-02-13T08:23:53;5.70;99.90
35277;DHT22;21401;50.878;8.050;2023-02-13T08:26:18;5.70;99.90
35277;DHT22;21401;50.878;8.050;2023-02-13T08:28:46;5.70;99.90
35277;DHT22;21401;50.878;8.050;2023-02-13T08:31:14;5.80;99.90
35277;DHT22;21401;50.878;8.050;2023-02-13T08:33:40;5.80;99.90
35277;DHT22;21401;50.878;8.050;2023-02-13T08:36:08;6.00;99.90
35277;DHT22;21401;50.878;8.050;2023-02-13T08:38:34;6.30;99.90
35277;DHT22;21401;50.878;8.050;2023-02-13T08:41:04;6.30;99.90
35277;DHT22;21401;50.878;8.050;2023-02-13T08:43:32;6.40;99.90
35277;DHT22;21401;50.878;8.050;2023-02-13T08:45:59;6.60;99.90
35277;DHT22;21401;50.878;8.050;2023-02-13T08:48:25;6.80;99.90
35277;DHT22;21401;50.878;8.050;2023-02-13T08:50:51;7.10;99.90
35277;DHT22;21401;50.878;8.050;2023-02-13T08:53:17;7.30;99.90
35277;DHT22;21401;50.878;8.050;2023-02-13T08:55:53;7.50;99.90
35277;DHT22;21401;50.878;8.050;2023-02-13T08:58:19;7.60;99.90
35277;DHT22;21401;50.878;8.050;2023-02-13T09:00:45;7.70;99.90
35277;DHT22;21401;50.878;8.050;2023-02-13T09:03:10;8.00;99.90
35277;DHT22;21401;50.878;8.050;2023-02-13T09:05:36;8.40;99.90
35277;DHT22;21401;50.878;8.050;2023-02-13T09:08:04;8.50;99.90
35277;DHT22;21401;50.878;8.050;2023-02-13T09:10:30;8.50;99.90
35277;DHT22;21401;50.878;8.050;2023-02-13T09:12:56;9.00;99.90
35277;DHT22;21401;50.878;8.050;2023-02-13T09:15:25;9.40;99.90
35277;DHT22;21401;50.878;8.050;2023-02-13T09:17:51;9.10;99.90
35277;DHT22;21401;50.878;8.050;2023-02-13T09:20:17;8.40;99.90
35277;DHT22;21401;50.878;8.050;2023-02-13T09:22:45;9.60;99.90
35277;DHT22;21401;50.878;8.050;2023-02-13T09:25:10;10.10;99.90
35277;DHT22;21401;50.878;8.050;2023-02-13T09:27:39;10.60;99.90
35277;DHT22;21401;50.878;8.050;2023-02-13T09:30:06;10.50;99.90
35277;DHT22;21401;50.878;8.050;2023-02-13T09:32:35;11.30;99.90
35277;DHT22;21401;50.878;8.050;2023-02-13T09:35:02;11.40;99.90
35277;DHT22;21401;50.878;8.050;2023-02-13T09:37:28;11.40;99.90
35277;DHT22;21401;50.878;8.050;2023-02-13T09:39:53;11.30;99.90
35277;DHT22;21401;50.878;8.050;2023-02-13T09:42:26;11.50;99.90
35277;DHT22;21401;50.878;8.050;2023-02-13T09:44:56;11.80;99.90
35277;DHT22;21401;50.878;8.050;2023-02-13T09:47:36;11.90;99.90
35277;DHT22;21401;50.878;8.050;2023-02-13T09:52:44;11.70;99.90
35277;DHT22;21401;50.878;8.050;2023-02-13T09:55:14;11.30;99.90
35277;DHT22;21401;50.878;8.050;2023-02-13T09:58:12;10.30;99.90
35277;DHT22;21401;50.878;8.050;2023-02-13T10:00:46;8.90;99.90
35277;DHT22;21401;50.878;8.050;2023-02-13T10:03:42;8.40;99.90
35277;DHT22;21401;50.878;8.050;2023-02-13T10:06:28;8.60;99.90
35277;DHT22;21401;50.878;8.050;2023-02-13T10:09:28;8.40;99.90
35277;DHT22;21401;50.878;8.050;2023-02-13T10:12:10;8.20;99.90
35277;DHT22;21401;50.878;8.050;2023-02-13T10:17:33;8.50;99.90
35277;DHT22;21401;50.878;8.050;2023-02-13T10:20:04;8.60;99.90
35277;DHT22;21401;50.878;8.050;2023-02-13T10:22:41;8.70;99.90
35277;DHT22;21401;50.878;8.050;2023-02-13T10:25:16;9.50;99.90
35277;DHT22;21401;50.878;8.050;2023-02-13T10:28:13;11.00;99.90
35277;DHT22;21401;50.878;8.050;2023-02-13T10:30:52;12.10;99.90
35277;DHT22;21401;50.878;8.050;2023-02-13T10:33:19;12.40;99.90
35277;DHT22;21401;50.878;8.050;2023-02-13T10:36:18;12.40;99.90
35277;DHT22;21401;50.878;8.050;2023-02-13T10:38:56;12.40;99.90
35277;DHT22;21401;50.878;8.050;2023-02-13T10:41:57;13.00;99.90
35277;DHT22;21401;50.878;8.050;2023-02-13T10:50:00;13.60;99.90
35277;DHT22;21401;50.878;8.050;2023-02-13T10:55:22;13.60;99.90
35277;DHT22;21401;50.878;8.050;2023-02-13T10:57:56;13.20;99.90
35277;DHT22;21401;50.878;8.050;2023-02-13T11:02:58;13.20;99.90
35277;DHT22;21401;50.878;8.050;2023-02-13T11:05:38;13.90;99.90
35277;DHT22;21401;50.878;8.050;2023-02-13T11:08:30;14.10;99.90
35277;DHT22;21401;50.878;8.050;2023-02-13T11:10:57;14.30;99.90
35277;DHT22;21401;50.878;8.050;2023-02-13T11:13:28;14.10;99.90
35277;DHT22;21401;50.878;8.050;2023-02-13T11:16:03;14.30;99.90
35277;DHT22;21401;50.878;8.050;2023-02-13T11:18:42;14.80;99.90
35277;DHT22;21401;50.878;8.050;2023-02-13T11:21:22;14.80;99.90
35277;DHT22;21401;50.878;8.050;2023-02-13T11:23:56;14.70;99.90
35277;DHT22;21401;50.878;8.050;2023-02-13T11:26:35;14.90;99.90
35277;DHT22;21401;50.878;8.050;2023-02-13T11:29:29;15.30;99.90
35277;DHT22;21401;50.878;8.050;2023-02-13T11:32:18;15.80;99.90
35277;DHT22;21401;50.878;8.050;2023-02-13T11:34:46;15.50;99.90
35277;DHT22;21401;50.878;8.050;2023-02-13T11:37:21;15.10;99.90
35277;DHT22;21401;50.878;8.050;2023-02-13T11:39:50;15.80;99.90
35277;DHT22;21401;50.878;8.050;2023-02-13T11:42:31;15.60;99.90
35277;DHT22;21401;50.878;8.050;2023-02-13T11:45:20;15.40;99.90
35277;DHT22;21401;50.878;8.050;2023-02-13T11:47:46;15.30;99.90
35277;DHT22;21401;50.878;8.050;2023-02-13T11:50:32;13.60;99.90
35277;DHT22;21401;50.878;8.050;2023-02-13T11:53:08;12.30;99.90
35277;DHT22;21401;50.878;8.050;2023-02-13T11:55:45;11.70;99.90
35277;DHT22;21401;50.878;8.050;2023-02-13T11:58:25;11.90;99.90
35277;DHT22;21401;50.878;8.050;2023-02-13T12:03:32;11.80;99.90
35277;DHT22;21401;50.878;8.050;2023-02-13T12:06:14;11.70;99.90
35277;DHT22;21401;50.878;8.050;2023-02-13T12:08:43;11.70;99.90
35277;DHT22;21401;50.878;8.050;2023-02-13T12:11:24;11.70;99.90
35277;DHT22;21401;50.878;8.050;2023-02-13T12:13:54;12.00;99.90
35277;DHT22;21401;50.878;8.050;2023-02-13T12:16:38;12.10;99.90
35277;DHT22;21401;50.878;8.050;2023-02-13T12:19:09;12.20;99.90
35277;DHT22;21401;50.878;8.050;2023-02-13T12:22:04;12.20;99.90
35277;DHT22;21401;50.878;8.050;2023-02-13T12:24:57;12.00;99.90
35277;DHT22;21401;50.878;8.050;2023-02-13T12:39:01;12.40;99.90
35277;DHT22;21401;50.878;8.050;2023-02-13T12:41:37;12.40;99.90
35277;DHT22;21401;50.878;8.050;2023-02-13T12:44:27;12.40;99.90
35277;DHT22;21401;50.878;8.050;2023-02-13T12:47:22;12.50;99.90
35277;DHT22;21401;50.878;8.050;2023-02-13T12:50:04;12.40;99.90
35277;DHT22;21401;50.878;8.050;2023-02-13T12:58:17;12.50;99.90
35277;DHT22;21401;50.878;8.050;2023-02-13T13:00:55;12.40;99.90
35277;DHT22;21401;50.878;8.050;2023-02-13T13:07:40;12.70;99.90
35277;DHT22;21401;50.878;8.050;2023-02-13T13:09:54;12.80;99.90
35277;DHT22;21401;50.878;8.050;2023-02-13T13:18:07;13.00;99.90
35277;DHT22;21401;50.878;8.050;2023-02-13T13:20:54;13.00;99.90
35277;DHT22;21401;50.878;8.050;2023-02-13T13:23:45;12.90;99.90
35277;DHT22;21401;50.878;8.050;2023-02-13T13:28:57;13.00;99.90
35277;DHT22;21401;50.878;8.050;2023-02-13T13:31:27;13.00;99.90
35277;DHT22;21401;50.878;8.050;2023-02-13T13:34:02;13.00;99.90
35277;DHT22;21401;50.878;8.050;2023-02-13T13:36:45;13.10;99.90
35277;DHT22;21401;50.878;8.050;2023-02-13T13:50:31;13.50;99.90
35277;DHT22;21401;50.878;8.050;2023-02-13T13:53:13;13.80;99.90
35277;DHT22;21401;50.878;8.050;2023-02-13T14:01:30;13.80;99.90
35277;DHT22;21401;50.878;8.050;2023-02-13T14:04:01;13.60;99.90
35277;DHT22;21401;50.878;8.050;2023-02-13T14:08:58;13.40;99.90
35277;DHT22;21401;50.878;8.050;2023-02-13T14:11:38;13.70;99.90
35277;DHT22;21401;50.878;8.050;2023-02-13T14:16:56;13.30;99.90
35277;DHT22;21401;50.878;8.050;2023-02-13T14:19:27;13.50;99.90
35277;DHT22;21401;50.878;8.050;2023-02-13T14:21:55;13.30;99.90
35277;DHT22;21401;50.878;8.050;2023-02-13T14:27:22;13.20;99.90
35277;DHT22;21401;50.878;8.050;2023-02-13T14:29:50;13.20;99.90
35277;DHT22;21401;50.878;8.050;2023-02-13T14:35:01;13.20;99.90
35277;DHT22;21401;50.878;8.050;2023-02-13T14:37:36;13.10;99.90
35277;DHT22;21401;50.878;8.050;2023-02-13T14:42:50;13.00;99.90
35277;DHT22;21401;50.878;8.050;2023-02-13T14:45:24;12.90;99.90
35277;DHT22;21401;50.878;8.050;2023-02-13T14:47:53;12.90;99.90
35277;DHT22;21401;50.878;8.050;2023-02-13T14:51:05;13.00;99.90
35277;DHT22;21401;50.878;8.050;2023-02-13T14:53:48;13.00;99.90
35277;DHT22;21401;50.878;8.050;2023-02-13T14:56:19;12.90;99.90
35277;DHT22;21401;50.878;8.050;2023-02-13T14:58:53;12.90;99.90
35277;DHT22;21401;50.878;8.050;2023-02-13T15:01:32;12.80;99.90
35277;DHT22;21401;50.878;8.050;2023-02-13T15:04:08;12.90;99.90
35277;DHT22;21401;50.878;8.050;2023-02-13T15:06:40;12.80;99.90
35277;DHT22;21401;50.878;8.050;2023-02-13T15:11:43;12.80;99.90
35277;DHT22;21401;50.878;8.050;2023-02-13T15:14:19;12.80;99.90
35277;DHT22;21401;50.878;8.050;2023-02-13T15:19:28;12.70;99.90
35277;DHT22;21401;50.878;8.050;2023-02-13T15:21:55;12.70;99.90
35277;DHT22;21401;50.878;8.050;2023-02-13T15:24:22;12.70;99.90
35277;DHT22;21401;50.878;8.050;2023-02-13T15:26:50;12.70;99.90
35277;DHT22;21401;50.878;8.050;2023-02-13T15:29:20;12.60;99.90
35277;DHT22;21401;50.878;8.050;2023-02-13T15:31:48;12.60;99.90
35277;DHT22;21401;50.878;8.050;2023-02-13T15:34:24;12.60;99.90
35277;DHT22;21401;50.878;8.050;2023-02-13T15:36:50;12.40;99.90
35277;DHT22;21401;50.878;8.050;2023-02-13T15:39:20;12.40;99.90
35277;DHT22;21401;50.878;8.050;2023-02-13T15:41:57;12.30;99.90
35277;DHT22;21401;50.878;8.050;2023-02-13T15:44:37;12.30;99.90
35277;DHT22;21401;50.878;8.050;2023-02-13T15:47:13;12.30;99.90
35277;DHT22;21401;50.878;8.050;2023-02-13T15:49:45;12.30;99.90
35277;DHT22;21401;50.878;8.050;2023-02-13T15:52:30;12.30;99.90
35277;DHT22;21401;50.878;8.050;2023-02-13T15:54:57;12.20;99.90
35277;DHT22;21401;50.878;8.050;2023-02-13T15:57:23;12.10;99.90
35277;DHT22;21401;50.878;8.050;2023-02-13T15:59:51;12.00;99.90
35277;DHT22;21401;50.878;8.050;2023-02-13T16:02:46;11.90;99.90
35277;DHT22;21401;50.878;8.050;2023-02-13T16:05:15;11.80;99.90
35277;DHT22;21401;50.878;8.050;2023-02-13T16:07:58;11.80;99.90
35277;DHT22;21401;50.878;8.050;2023-02-13T16:10:32;11.60;99.90
35277;DHT22;21401;50.878;8.050;2023-02-13T16:13:03;11.60;99.90
35277;DHT22;21401;50.878;8.050;2023-02-13T16:15:33;11.40;99.90
35277;DHT22;21401;50.878;8.050;2023-02-13T16:18:03;11.30;99.90
35277;DHT22;21401;50.878;8.050;2023-02-13T16:20:36;11.30;99.90
35277;DHT22;21401;50.878;8.050;2023-02-13T16:23:15;11.20;99.90
35277;DHT22;21401;50.878;8.050;2023-02-13T16:25:44;11.10;99.90
35277;DHT22;21401;50.878;8.050;2023-02-13T16:28:24;10.90;99.90
35277;DHT22;21401;50.878;8.050;2023-02-13T16:30:57;10.60;99.90
35277;DHT22;21401;50.878;8.050;2023-02-13T16:33:30;10.50;99.90
35277;DHT22;21401;50.878;8.050;2023-02-13T16:35:57;10.50;99.90
35277;DHT22;21401;50.878;8.050;2023-02-13T16:41:27;10.30;99.90
35277;DHT22;21401;50.878;8.050;2023-02-13T16:43:52;10.30;99.90
35277;DHT22;21401;50.878;8.050;2023-02-13T16:46:19;10.10;99.90
35277;DHT22;21401;50.878;8.050;2023-02-13T16:59:17;9.60;99.90
35277;DHT22;21401;50.878;8.050;2023-02-13T17:01:45;9.60;99.90
35277;DHT22;21401;50.878;8.050;2023-02-13T17:04:22;9.50;99.90
35277;DHT22;21401;50.878;8.050;2023-02-13T17:06:53;9.50;99.90
35277;DHT22;21401;50.878;8.050;2023-02-13T17:09:19;9.30;99.90
35277;DHT22;21401;50.878;8.050;2023-02-13T17:11:49;9.20;99.90
35277;DHT22;21401;50.878;8.050;2023-02-13T17:14:16;9.10;99.90
35277;DHT22;21401;50.878;8.050;2023-02-13T17:16:45;9.00;99.90
35277;DHT22;21401;50.878;8.050;2023-02-13T17:19:11;9.00;99.90
35277;DHT22;21401;50.878;8.050;2023-02-13T17:21:37;8.90;99.90
35277;DHT22;21401;50.878;8.050;2023-02-13T17:24:03;8.80;99.90
35277;DHT22;21401;50.878;8.050;2023-02-13T17:26:32;8.70;99.90
35277;DHT22;21401;50.878;8.050;2023-02-13T17:28:57;8.60;99.90
35277;DHT22;21401;50.878;8.050;2023-02-13T17:31:23;8.50;99.90
35277;DHT22;21401;50.878;8.050;2023-02-13T17:33:50;8.40;99.90
35277;DHT22;21401;50.878;8.050;2023-02-13T17:36:16;8.40;99.90
35277;DHT22;21401;50.878;8.050;2023-02-13T17:38:42;8.40;99.90
35277;DHT22;21401;50.878;8.050;2023-02-13T17:41:14;8.40;99.90
35277;DHT22;21401;50.878;8.050;2023-02-13T17:43:42;8.30;99.90
35277;DHT22;21401;50.878;8.050;2023-02-13T17:46:08;8.30;99.90
35277;DHT22;21401;50.878;8.050;2023-02-13T17:48:36;8.10;99.90
35277;DHT22;21401;50.878;8.050;2023-02-13T17:51:02;7.90;99.90
35277;DHT22;21401;50.878;8.050;2023-02-13T17:53:30;7.90;99.90
35277;DHT22;21401;50.878;8.050;2023-02-13T17:55:59;7.90;99.90
35277;DHT22;21401;50.878;8.050;2023-02-13T17:58:25;7.90;99.90
35277;DHT22;21401;50.878;8.050;2023-02-13T18:00:50;7.90;99.90
35277;DHT22;21401;50.878;8.050;2023-02-13T18:03:17;7.80;99.90
35277;DHT22;21401;50.878;8.050;2023-02-13T18:05:46;7.70;99.90
35277;DHT22;21401;50.878;8.050;2023-02-13T18:08:12;7.40;99.90
35277;DHT22;21401;50.878;8.050;2023-02-13T18:10:38;7.40;99.90
35277;DHT22;21401;50.878;8.050;2023-02-13T18:13:04;7.30;99.90
35277;DHT22;21401;50.878;8.050;2023-02-13T18:15:34;7.30;99.90
35277;DHT22;21401;50.878;8.050;2023-02-13T18:18:02;7.30;99.90
35277;DHT22;21401;50.878;8.050;2023-02-13T18:20:28;7.20;99.90
35277;DHT22;21401;50.878;8.050;2023-02-13T18:22:54;7.00;99.90
35277;DHT22;21401;50.878;8.050;2023-02-13T18:25:20;6.90;99.90
35277;DHT22;21401;50.878;8.050;2023-02-13T18:27:48;6.80;99.90
35277;DHT22;21401;50.878;8.050;2023-02-13T18:30:16;6.70;99.90
35277;DHT22;21401;50.878;8.050;2023-02-13T18:32:44;6.60;99.90
35277;DHT22;21401;50.878;8.050;2023-02-13T18:35:12;6.40;99.90
35277;DHT22;21401;50.878;8.050;2023-02-13T18:37:40;6.40;99.90
35277;DHT22;21401;50.878;8.050;2023-02-13T18:40:07;6.40;99.90
35277;DHT22;21401;50.878;8.050;2023-02-13T18:42:33;6.20;99.90
35277;DHT22;21401;50.878;8.050;2023-02-13T18:45:02;6.10;99.90
35277;DHT22;21401;50.878;8.050;2023-02-13T18:47:28;6.00;99.90